Skip Navigation Links Skip Navigation Links

Current Weather

Michigan City Muni, Michigan City, Ind.

For information only: do not use for flight planning or navigation.
Latest weather
Observation time Friday, May 29, 2020 5:35 PM EDT
Local time Friday, May 29, 2020 5:51 PM EDT
Flight conditions Visual Meteorological Conditions
Winds
Wind direction North-Northeast (20°)
Wind speed 10 mph
Visibility 10 mi.
Sky condition
Ceiling unlimited
Sky clear
Temperature 68°F
Dewpoint 61°F
Altimeter 29.99 in.Hg
Derived measurements
Relative humidity 78%
Density altitude 1412 ft.
Remarks
Fully automated report.
Automated weather observing station with precipitation discriminator.
METAR KMGC 292135Z AUTO 02009KT 10SM CLR 20/16 A2999 RMK AO2

Settings

Location code

InnerDrive.Weather 4.0.6770.0 Release CLR 4.0.30319.42000
Copyright ©2018 Inner Drive Technology. All rights reserved. Portions Copyright ©1986-2018 David Braverman.

Find weather

Site navigation


Skip Navigation Links

Place info

Page info

PayPal - The safer, easier way to pay online!

Return home.

Copyright ©2020 Inner Drive Technology. Purveyors of fine, hand-crafted computer software. Page printed 2020-05-29T21:51:42 UTC.